Aeroporto :
LOGIN :

Iscrizione | Disclaimer

   EN    FR    IT 

 










Sommario :    VFR   VFR Marginale   IFR   IFR Intensivo   IFR Molto Intensivo
Visibilità : 
Base nubi : 
>= 8 km
>= 3000ft
5 / 8 km
1000 / 3000 ft
1500m / 5 km
500 / 1000 ft
800 / 1500m
200 / 500 ft
< 800m
< 200 ft
Simboli :   Temporali  Nebbia  Neve Forte  Precipitazioni Forti  Vento > 20 kt
SIGMETs :   Varie  Temporali  Ghiacco  Turbolenza  Onda orograficha  Ceneri Vulcaniche






- Altitudine del aeroporto : 626 ft
- Codice IATA : CRA


LRCV - Craiova

ULTIMO METAR :
  • 171530Z 21003KT CAVOK 12/01 Q1022

METARs OBSOLETI :
  • 171500Z 21004KT 170V230 CAVOK 13/00 Q1022
  • 171430Z 22003KT 180V280 CAVOK 13/00 Q1022
  • 171400Z 24004KT 200V270 CAVOK 13/M01 Q1023
  • 171330Z 20005KT 170V240 CAVOK 13/M00 Q1023
  • 171300Z 22004KT 170V270 CAVOK 13/M01 Q1023

TAF TAF LRCV
Valido dal 17 a 15 ore il 18 a 00 ore UTC


171400Z 1715/1724 VRB04KT CAVOK



MetMap, La meteo Aeronautica in un colpo d'occhio ! - Copyright ORBIFLY Dicembre 2007 - Disclaimer

ORBIFLY MET'MAP TEAM :

Programmazione e sviluppo : Alexandra Zaïnal
Concezione : Baudouin d'Aumeries
Aiuto per la programmazione : Marc-Olivier Méhu
Supporto tecnico e logistico : Manuel Goepfert
Aiuto per la traduzione : Arnaldo La Scala

Contatto : metmap@orbifly.com




FONTI E CREDITI :

   NOAA